Time;durP1;ratioP1;P1;durP2;ratioP2;P2;SDS_P1;SDS_P2;PMS_P1;PMS_P2;Temp;Humidity;BMP_temperature;BMP_pressure;BME280_temperature;BME280_humidity;BME280_pressure;Samples;Min_cycle;Max_cycle;Signal;HPM_P1;HPM_P2
2023/01/16 00:00:15;;;;;;;1.88;1.40;;;2.30;99.90;;;;;;5051395;28;20401;-68
2023/01/16 00:02:43;;;;;;;2.58;1.60;;;2.30;99.90;;;;;;5061627;28;20076;-68
2023/01/16 00:05:11;;;;;;;2.40;1.90;;;2.30;99.90;;;;;;5059550;28;20045;-68
2023/01/16 00:07:38;;;;;;;1.70;1.60;;;2.30;99.90;;;;;;5062779;28;20535;-68
2023/01/16 00:10:07;;;;;;;2.28;1.40;;;2.30;99.90;;;;;;5051435;28;20037;-68
2023/01/16 00:12:34;;;;;;;3.78;1.70;;;2.30;99.90;;;;;;5065715;28;20055;-68
2023/01/16 00:15:02;;;;;;;1.63;1.40;;;2.30;99.90;;;;;;5056496;28;20493;-67
2023/01/16 00:17:32;;;;;;;1.52;1.42;;;2.30;99.90;;;;;;5057685;28;20051;-66
2023/01/16 00:20:00;;;;;;;1.92;1.70;;;2.30;99.90;;;;;;5058932;28;20135;-66
2023/01/16 00:22:27;;;;;;;1.80;1.55;;;2.30;99.90;;;;;;5054410;28;20044;-67
2023/01/16 00:24:54;;;;;;;2.58;1.92;;;2.30;99.90;;;;;;5067275;28;20198;-67
2023/01/16 00:27:22;;;;;;;2.38;1.75;;;2.30;99.90;;;;;;5065885;28;20110;-67
2023/01/16 00:29:49;;;;;;;1.55;1.45;;;2.30;99.90;;;;;;5061912;28;20144;-68
2023/01/16 00:32:17;;;;;;;2.50;2.00;;;2.30;99.90;;;;;;5054288;28;20045;-67
2023/01/16 00:34:45;;;;;;;1.58;1.42;;;2.30;99.90;;;;;;5054792;28;20052;-67
2023/01/16 00:37:13;;;;;;;1.80;1.63;;;2.30;99.90;;;;;;5054005;28;20055;-68
2023/01/16 00:39:40;;;;;;;2.00;1.63;;;2.40;99.90;;;;;;5069561;28;20057;-68
2023/01/16 00:42:08;;;;;;;1.55;1.40;;;2.30;99.90;;;;;;5068802;28;20044;-67
2023/01/16 00:44:35;;;;;;;1.80;1.42;;;2.40;99.90;;;;;;5056135;28;20061;-67
2023/01/16 00:47:04;;;;;;;1.63;1.52;;;2.30;99.90;;;;;;5054033;28;20052;-67
2023/01/16 00:49:32;;;;;;;1.55;1.38;;;2.40;99.90;;;;;;5053547;28;20059;-68
2023/01/16 00:52:01;;;;;;;1.77;1.10;;;2.30;99.90;;;;;;5071411;28;20052;-68
2023/01/16 00:54:28;;;;;;;1.65;1.55;;;2.30;99.90;;;;;;5050347;28;20053;-66
2023/01/16 00:56:56;;;;;;;1.83;1.50;;;2.40;99.90;;;;;;5071231;28;20485;-70
2023/01/16 00:59:23;;;;;;;1.30;1.20;;;2.40;99.90;;;;;;5059044;28;20114;-69
2023/01/16 01:01:50;;;;;;;1.92;1.73;;;2.40;99.90;;;;;;5068813;28;20051;-69
2023/01/16 01:04:18;;;;;;;2.33;1.70;;;2.40;99.90;;;;;;5067467;28;20048;-70
2023/01/16 01:06:45;;;;;;;1.73;1.42;;;2.40;99.90;;;;;;5066125;28;20051;-70
2023/01/16 01:09:14;;;;;;;1.50;1.40;;;2.40;99.90;;;;;;5072933;28;20543;-70
2023/01/16 01:11:41;;;;;;;2.10;1.40;;;2.30;99.90;;;;;;5054555;28;20045;-69
2023/01/16 01:14:08;;;;;;;2.10;1.60;;;2.30;99.90;;;;;;5049893;28;20107;-70
2023/01/16 01:16:36;;;;;;;1.42;1.33;;;2.30;99.90;;;;;;5057490;28;20052;-70
2023/01/16 01:19:03;;;;;;;3.25;1.40;;;2.40;99.90;;;;;;5058884;28;20044;-70
2023/01/16 01:21:30;;;;;;;1.40;1.30;;;2.40;99.90;;;;;;5057415;28;20047;-70
2023/01/16 01:23:58;;;;;;;1.65;1.50;;;2.40;99.90;;;;;;5066968;28;20106;-70
2023/01/16 01:26:26;;;;;;;1.73;1.30;;;2.40;99.90;;;;;;5060127;28;20048;-71
2023/01/16 01:28:54;;;;;;;1.83;1.10;;;2.40;99.90;;;;;;5051138;28;20132;-69
2023/01/16 01:31:21;;;;;;;1.27;1.10;;;2.40;99.90;;;;;;5055214;28;20503;-70
2023/01/16 01:33:48;;;;;;;2.85;1.20;;;2.40;99.90;;;;;;5053767;28;20584;-70
2023/01/16 01:36:16;;;;;;;1.13;1.00;;;2.40;99.90;;;;;;5057102;28;20044;-71
2023/01/16 01:38:43;;;;;;;1.23;1.10;;;2.40;99.90;;;;;;5053555;28;20517;-71
2023/01/16 01:41:14;;;;;;;1.67;1.23;;;2.40;99.90;;;;;;5061675;28;20520;-71
2023/01/16 01:43:46;;;;;;;1.17;1.08;;;2.40;99.90;;;;;;5054019;28;20053;-71
2023/01/16 01:46:32;;;;;;;1.25;1.08;;;2.40;99.90;;;;;;5068844;28;20433;-70
2023/01/16 01:49:23;;;;;;;1.25;1.00;;;2.40;99.90;;;;;;5058370;28;20090;-72
2023/01/16 01:51:52;;;;;;;1.20;1.10;;;2.40;99.90;;;;;;5077680;28;20098;-70
2023/01/16 01:54:23;;;;;;;1.42;1.15;;;2.40;99.90;;;;;;5051019;28;20242;-71
2023/01/16 02:00:58;;;;;;;1.90;0.77;;;2.40;99.90;;;;;;5071537;28;20063;-70
2023/01/16 02:03:32;;;;;;;1.20;1.10;;;2.40;99.90;;;;;;5070331;28;20045;-71
2023/01/16 02:06:06;;;;;;;0.80;0.80;;;2.40;99.90;;;;;;5060104;28;20060;-70
2023/01/16 02:08:35;;;;;;;0.85;0.85;;;2.40;99.90;;;;;;5064051;28;20044;-70
2023/01/16 02:11:08;;;;;;;0.90;0.90;;;2.40;99.90;;;;;;5062554;28;20053;-71
2023/01/16 02:13:38;;;;;;;;;;;2.40;99.90;;;;;;5068733;28;20060;-71
2023/01/16 02:22:29;;;;;;;1.25;0.80;;;2.40;99.90;;;;;;5067303;28;20076;-71
2023/01/16 02:25:26;;;;;;;1.08;1.00;;;2.40;99.90;;;;;;5063801;28;20048;-71
2023/01/16 02:28:43;;;;;;;0.60;0.52;;;2.40;99.90;;;;;;5052719;28;20119;-70
2023/01/16 02:31:28;;;;;;;2.25;1.00;;;2.40;99.90;;;;;;5038725;28;20583;-70
2023/01/16 02:34:24;;;;;;;1.40;0.93;;;2.40;99.90;;;;;;5060655;28;20386;-70
2023/01/16 02:37:04;;;;;;;3.78;0.80;;;2.40;99.90;;;;;;5052953;28;20060;-70
2023/01/16 02:39:40;;;;;;;1.27;0.73;;;2.40;99.90;;;;;;5066440;28;20103;-70
2023/01/16 02:42:26;;;;;;;1.35;0.70;;;2.40;99.90;;;;;;5063156;28;20496;-70
2023/01/16 02:45:04;;;;;;;0.70;0.60;;;2.40;99.90;;;;;;5067626;28;20040;-71
2023/01/16 02:47:44;;;;;;;0.73;0.73;;;2.50;99.90;;;;;;5053449;28;20049;-71
2023/01/16 02:50:22;;;;;;;0.70;0.70;;;2.50;99.90;;;;;;5057459;28;20144;-70
2023/01/16 02:52:58;;;;;;;0.70;0.70;;;2.50;99.90;;;;;;5090527;28;20135;-70
2023/01/16 02:55:32;;;;;;;0.90;0.65;;;2.50;99.90;;;;;;5071750;28;20079;-71
2023/01/16 02:58:03;;;;;;;0.50;0.50;;;2.50;99.90;;;;;;5070995;28;20460;-71
2023/01/16 03:00:31;;;;;;;0.98;0.85;;;2.50;99.90;;;;;;5061952;28;20425;-70
2023/01/16 03:03:00;;;;;;;0.95;0.80;;;2.50;99.90;;;;;;5054235;28;20478;-71
2023/01/16 03:05:39;;;;;;;0.60;0.60;;;2.50;99.90;;;;;;5064333;28;20079;-67
2023/01/16 03:08:31;;;;;;;0.70;0.60;;;2.60;99.90;;;;;;5061746;28;20448;-69
2023/01/16 03:11:21;;;;;;;2.08;0.73;;;2.60;99.90;;;;;;5083447;28;20549;-69
2023/01/16 03:14:01;;;;;;;1.02;0.85;;;2.60;99.90;;;;;;5067026;28;20052;-69
2023/01/16 03:16:35;;;;;;;0.75;0.75;;;2.60;99.90;;;;;;5066198;28;20501;-70
2023/01/16 03:19:21;;;;;;;0.98;0.88;;;2.60;99.90;;;;;;5061642;28;20068;-70
2023/01/16 03:22:07;;;;;;;0.68;0.68;;;2.60;99.90;;;;;;5057073;28;20045;-70
2023/01/16 03:24:50;;;;;;;0.70;0.70;;;2.60;99.90;;;;;;5064948;28;20059;-70
2023/01/16 03:27:32;;;;;;;0.60;0.60;;;2.60;99.90;;;;;;5066077;28;20088;-69
2023/01/16 03:30:10;;;;;;;0.63;0.63;;;2.60;99.90;;;;;;5054667;28;20043;-70
2023/01/16 03:32:43;;;;;;;0.80;0.70;;;2.60;99.90;;;;;;5072135;28;20462;-71
2023/01/16 03:35:17;;;;;;;0.68;0.60;;;2.60;99.90;;;;;;5060119;28;20455;-70
2023/01/16 03:37:50;;;;;;;0.60;0.60;;;2.60;99.90;;;;;;5070999;28;20056;-71
2023/01/16 03:40:23;;;;;;;0.73;0.70;;;2.60;99.90;;;;;;5060742;28;20444;-70
2023/01/16 03:42:58;;;;;;;0.60;0.60;;;2.60;99.90;;;;;;5052465;28;20486;-70
2023/01/16 03:45:32;;;;;;;0.80;0.80;;;2.60;99.90;;;;;;5061787;28;20582;-70
2023/01/16 03:48:06;;;;;;;1.45;1.15;;;2.60;99.90;;;;;;5061457;28;20052;-70
2023/01/16 03:50:37;;;;;;;2.67;1.08;;;2.60;99.90;;;;;;5055903;28;20098;-71
2023/01/16 03:53:09;;;;;;;2.88;0.75;;;2.60;99.90;;;;;;5068826;28;20645;-71
2023/01/16 03:55:44;;;;;;;1.00;0.60;;;2.60;99.90;;;;;;5056927;28;20048;-70
2023/01/16 03:58:20;;;;;;;0.70;0.63;;;2.60;99.90;;;;;;5059234;28;20052;-70
2023/01/16 04:00:58;;;;;;;0.80;0.80;;;2.60;99.90;;;;;;5053257;28;20148;-71
2023/01/16 04:03:30;;;;;;;0.93;0.70;;;2.60;99.90;;;;;;5064811;28;20041;-71
2023/01/16 04:06:09;;;;;;;0.68;0.68;;;2.60;99.90;;;;;;5052647;28;20079;-70
2023/01/16 04:08:40;;;;;;;1.25;0.68;;;2.60;99.90;;;;;;5061928;28;20331;-70
2023/01/16 04:11:10;;;;;;;0.70;0.70;;;2.70;99.90;;;;;;5068423;28;20554;-70
2023/01/16 04:13:40;;;;;;;0.98;0.60;;;2.70;99.90;;;;;;5069815;28;20486;-66
2023/01/16 04:16:13;;;;;;;0.70;0.70;;;2.60;99.90;;;;;;5050844;28;20601;-68
2023/01/16 04:18:42;;;;;;;0.68;0.50;;;2.60;99.90;;;;;;5054674;28;20518;-68
2023/01/16 04:21:11;;;;;;;0.60;0.60;;;2.70;99.90;;;;;;5058604;28;20413;-68
2023/01/16 04:23:39;;;;;;;1.00;0.82;;;2.70;99.90;;;;;;5052259;28;20065;-72
2023/01/16 04:26:06;;;;;;;0.90;0.90;;;2.70;99.90;;;;;;5064436;28;20424;-68
2023/01/16 04:28:36;;;;;;;0.82;0.82;;;2.70;99.90;;;;;;5054583;28;20060;-67
2023/01/16 04:31:03;;;;;;;1.08;0.80;;;2.70;99.90;;;;;;5071817;28;20044;-68
2023/01/16 04:33:31;;;;;;;0.85;0.85;;;2.70;99.90;;;;;;5071637;28;20060;-69
2023/01/16 04:35:58;;;;;;;1.08;0.82;;;2.70;99.90;;;;;;5065912;28;20032;-68
2023/01/16 04:42:41;;;;;;;1.83;1.10;;;2.70;99.90;;;;;;5062215;28;20052;-73
2023/01/16 04:45:10;;;;;;;1.00;0.77;;;2.70;99.90;;;;;;5065283;28;20094;-70
2023/01/16 04:47:38;;;;;;;0.80;0.80;;;2.70;99.90;;;;;;5065283;28;20478;-69
2023/01/16 04:50:12;;;;;;;0.80;0.80;;;2.80;99.90;;;;;;5066444;28;20049;-69
2023/01/16 04:52:48;;;;;;;1.30;0.80;;;2.70;99.90;;;;;;5060776;28;20048;-67
2023/01/16 04:55:16;;;;;;;0.65;0.65;;;2.70;99.90;;;;;;5065813;28;20040;-68
2023/01/16 04:57:45;;;;;;;0.80;0.80;;;2.80;99.90;;;;;;5065411;28;20044;-69
2023/01/16 05:00:14;;;;;;;0.63;0.63;;;2.70;99.90;;;;;;5077457;28;20150;-69
2023/01/16 05:02:44;;;;;;;1.25;0.90;;;2.80;99.90;;;;;;5063061;28;20056;-68
2023/01/16 05:05:11;;;;;;;0.60;0.60;;;2.80;99.90;;;;;;5070374;28;20090;-70
2023/01/16 05:07:38;;;;;;;0.98;0.90;;;2.70;99.90;;;;;;5069000;28;20056;-70
2023/01/16 05:10:07;;;;;;;2.30;1.15;;;2.70;99.90;;;;;;5078088;28;20515;-68
2023/01/16 05:12:34;;;;;;;1.05;0.93;;;2.70;99.90;;;;;;5062172;28;20536;-67
2023/01/16 05:15:04;;;;;;;1.92;1.00;;;2.70;99.90;;;;;;5058119;28;20052;-68
2023/01/16 05:17:31;;;;;;;0.93;0.90;;;2.70;99.90;;;;;;5050094;28;20509;-68
2023/01/16 05:19:58;;;;;;;0.90;0.90;;;2.70;99.90;;;;;;5062267;28;20541;-68
2023/01/16 05:22:26;;;;;;;0.93;0.73;;;2.80;99.90;;;;;;5055865;28;20130;-68
2023/01/16 05:24:53;;;;;;;2.45;0.90;;;2.80;99.90;;;;;;5049517;28;20075;-69
2023/01/16 05:27:21;;;;;;;0.80;0.80;;;2.80;99.90;;;;;;5049490;28;20148;-68
2023/01/16 05:29:48;;;;;;;0.88;0.88;;;2.80;99.90;;;;;;5058866;28;20044;-68
2023/01/16 05:32:17;;;;;;;0.82;0.82;;;2.80;99.90;;;;;;5059780;28;20059;-68
2023/01/16 05:34:46;;;;;;;1.08;1.00;;;2.80;99.90;;;;;;5062774;28;20044;-68
2023/01/16 05:37:14;;;;;;;1.30;1.20;;;2.80;99.90;;;;;;5055636;28;20049;-68
2023/01/16 05:39:41;;;;;;;0.93;0.93;;;2.80;99.90;;;;;;5057104;28;20293;-68
2023/01/16 05:42:20;;;;;;;1.10;1.00;;;2.80;99.90;;;;;;5069477;28;20146;-69
2023/01/16 05:44:48;;;;;;;1.02;0.93;;;2.80;99.90;;;;;;5068738;28;20052;-68
2023/01/16 05:47:17;;;;;;;1.45;1.35;;;2.80;99.90;;;;;;5062976;28;21311;-73
2023/01/16 05:49:44;;;;;;;2.25;1.08;;;2.90;99.90;;;;;;5053716;28;20049;-73
2023/01/16 05:52:12;;;;;;;2.15;1.10;;;2.90;99.90;;;;;;5061394;28;20051;-72
2023/01/16 05:54:39;;;;;;;1.00;0.90;;;2.90;99.90;;;;;;5067439;28;20052;-72
2023/01/16 05:57:07;;;;;;;0.90;0.90;;;2.90;99.90;;;;;;5061218;28;20040;-72
2023/01/16 05:59:34;;;;;;;1.02;0.93;;;2.90;99.90;;;;;;5057255;28;20501;-73
2023/01/16 06:02:01;;;;;;;0.88;0.88;;;3.00;99.90;;;;;;5048919;28;20091;-72
2023/01/16 06:04:30;;;;;;;1.20;1.10;;;2.90;99.90;;;;;;5056285;28;20159;-73
2023/01/16 06:07:12;;;;;;;4.78;1.15;;;2.90;99.90;;;;;;5055933;28;20127;-73
2023/01/16 06:10:01;;;;;;;1.65;1.20;;;2.90;99.90;;;;;;5055381;28;20053;-68
2023/01/16 06:12:51;;;;;;;2.45;1.35;;;2.90;99.90;;;;;;5060111;28;20047;-69
2023/01/16 06:16:48;;;;;;;2.33;1.27;;;2.90;99.90;;;;;;5050806;28;20718;-69
2023/01/16 06:20:07;;;;;;;1.63;1.52;;;2.90;99.90;;;;;;5060890;28;20480;-69
2023/01/16 06:22:35;;;;;;;1.15;1.05;;;2.90;99.90;;;;;;5069140;28;20147;-68
2023/01/16 06:25:02;;;;;;;2.13;1.20;;;2.90;99.90;;;;;;5066661;28;20047;-68
2023/01/16 06:27:32;;;;;;;1.88;1.42;;;2.90;99.90;;;;;;5065503;28;20055;-67
2023/01/16 06:29:59;;;;;;;4.65;1.80;;;2.90;99.90;;;;;;5069029;28;20459;-68
2023/01/16 06:32:59;;;;;;;;;;;;;;;;;;;;;
2023/01/16 06:35:36;;;;;;;3.78;2.17;;;2.90;99.90;;;;;;5066458;28;20152;-67
2023/01/16 06:38:04;;;;;;;1.63;1.38;;;2.90;99.90;;;;;;5068333;28;20044;-68
2023/01/16 06:40:31;;;;;;;1.60;1.50;;;2.90;99.90;;;;;;5070754;28;20416;-68
2023/01/16 06:42:59;;;;;;;1.35;1.10;;;2.90;99.90;;;;;;5071302;28;20139;-68
2023/01/16 06:45:26;;;;;;;1.10;1.00;;;2.90;99.90;;;;;;5072325;28;20049;-69
2023/01/16 06:47:54;;;;;;;1.63;1.45;;;3.00;99.90;;;;;;5071159;28;20044;-67
2023/01/16 06:50:27;;;;;;;2.10;1.40;;;3.00;99.90;;;;;;5071594;28;20519;-68
2023/01/16 06:53:00;;;;;;;1.83;1.58;;;3.00;99.90;;;;;;5069886;28;20044;-67
2023/01/16 06:55:28;;;;;;;2.58;1.45;;;3.00;99.90;;;;;;5061296;28;20063;-70
2023/01/16 06:57:56;;;;;;;2.67;1.67;;;3.00;99.90;;;;;;5055232;28;20531;-67
2023/01/16 07:00:42;;;;;;;3.60;1.60;;;3.00;99.90;;;;;;5064676;28;20137;-67
2023/01/16 07:03:10;;;;;;;1.30;1.20;;;2.90;99.90;;;;;;5068967;28;20040;-72
2023/01/16 07:05:38;;;;;;;1.55;1.45;;;3.00;99.90;;;;;;5059366;28;20083;-72
2023/01/16 07:08:06;;;;;;;2.30;1.25;;;3.00;99.90;;;;;;5061196;28;20100;-72
2023/01/16 07:10:34;;;;;;;2.72;1.65;;;3.10;99.90;;;;;;5066675;28;20090;-72
2023/01/16 07:13:01;;;;;;;1.52;1.30;;;3.00;99.90;;;;;;5057477;28;20129;-71
2023/01/16 07:23:55;;;;;;;2.55;1.70;;;3.10;99.90;;;;;;5050078;28;20053;-72
2023/01/16 07:26:25;;;;;;;2.22;1.73;;;3.00;99.90;;;;;;5067431;28;20083;-71
2023/01/16 07:28:54;;;;;;;2.40;1.60;;;3.00;99.90;;;;;;5052398;28;20061;-72
2023/01/16 07:31:28;;;;;;;2.67;1.35;;;3.00;99.90;;;;;;5055137;28;20052;-73
2023/01/16 07:33:56;;;;;;;1.50;1.40;;;3.10;99.90;;;;;;5066004;28;20056;-75
2023/01/16 07:36:24;;;;;;;1.92;1.80;;;3.10;99.90;;;;;;5053649;28;20079;-74
2023/01/16 07:38:53;;;;;;;1.40;1.30;;;3.10;99.90;;;;;;5072730;28;20053;-75
2023/01/16 07:41:21;;;;;;;2.50;1.30;;;3.10;99.90;;;;;;5072378;28;20052;-73
2023/01/16 07:43:48;;;;;;;4.40;1.70;;;3.20;99.90;;;;;;5060954;28;20060;-74
2023/01/16 07:46:15;;;;;;;3.22;1.50;;;3.10;99.90;;;;;;5049908;28;20422;-72
2023/01/16 07:48:43;;;;;;;1.85;1.65;;;3.10;99.90;;;;;;5054218;28;20061;-73
2023/01/16 07:51:35;;;;;;;2.00;1.70;;;3.20;99.90;;;;;;5063754;28;20079;-72
2023/01/16 07:54:11;;;;;;;1.98;1.50;;;3.20;99.90;;;;;;5057880;28;20051;-73
2023/01/16 07:56:38;;;;;;;1.55;1.42;;;3.20;99.90;;;;;;5072055;28;20086;-73
2023/01/16 07:59:06;;;;;;;3.28;1.70;;;3.30;99.90;;;;;;5050323;28;20059;-74
2023/01/16 08:01:33;;;;;;;5.13;2.60;;;3.30;99.90;;;;;;5051983;28;20095;-73
2023/01/16 08:04:01;;;;;;;6.97;4.05;;;3.30;99.90;;;;;;5052141;28;20080;-73
2023/01/16 08:06:28;;;;;;;2.95;1.27;;;3.20;99.90;;;;;;5051973;28;20106;-74
2023/01/16 08:08:55;;;;;;;2.88;2.17;;;3.30;99.90;;;;;;5051318;28;20041;-74
2023/01/16 08:11:38;;;;;;;2.80;1.67;;;3.30;99.90;;;;;;5061525;28;20048;-73
2023/01/16 08:14:07;;;;;;;2.30;1.67;;;3.30;99.90;;;;;;5070083;28;20911;-73
2023/01/16 08:16:35;;;;;;;5.55;1.85;;;3.30;99.90;;;;;;5067199;28;20456;-73
2023/01/16 08:19:03;;;;;;;3.15;1.67;;;3.30;99.90;;;;;;5057642;28;20053;-73
2023/01/16 08:21:30;;;;;;;1.75;1.65;;;3.30;99.90;;;;;;5048476;28;20229;-74
2023/01/16 08:23:58;;;;;;;1.48;1.38;;;3.30;99.90;;;;;;5078501;28;20048;-73
2023/01/16 08:26:27;;;;;;;2.40;1.38;;;3.30;99.90;;;;;;5069306;28;20048;-75
2023/01/16 08:28:54;;;;;;;1.55;1.45;;;3.30;99.90;;;;;;5074877;28;20048;-73
2023/01/16 08:31:21;;;;;;;2.67;1.77;;;3.30;99.90;;;;;;5070475;28;20131;-73
2023/01/16 08:33:51;;;;;;;1.80;1.60;;;3.30;99.90;;;;;;5069466;28;20404;-73
2023/01/16 08:36:20;;;;;;;2.95;1.70;;;3.30;99.90;;;;;;5065517;28;20052;-73
2023/01/16 08:38:48;;;;;;;2.65;1.63;;;3.30;99.90;;;;;;5069901;28;20060;-74
2023/01/16 08:52:32;;;;;;;3.90;2.13;;;3.30;99.90;;;;;;5036146;28;20181;-73
2023/01/16 08:54:59;;;;;;;2.58;1.50;;;3.30;99.90;;;;;;5052516;28;20044;-72
2023/01/16 08:57:28;;;;;;;3.95;2.05;;;3.30;99.90;;;;;;5061901;28;20072;-73
2023/01/16 08:59:58;;;;;;;4.80;1.85;;;3.40;99.90;;;;;;5032263;28;20541;-73
2023/01/16 09:02:26;;;;;;;2.92;1.75;;;3.30;99.90;;;;;;5088970;28;20080;-71
2023/01/16 09:04:54;;;;;;;2.05;1.70;;;3.30;99.90;;;;;;5062783;28;20115;-73
2023/01/16 09:07:23;;;;;;;1.75;1.30;;;3.30;99.90;;;;;;5049278;28;20081;-73
2023/01/16 09:09:50;;;;;;;2.15;1.95;;;3.30;99.90;;;;;;5050316;28;20055;-73
2023/01/16 09:15:06;;;;;;;1.70;1.60;;;3.30;99.90;;;;;;5061869;28;20075;-73
2023/01/16 09:17:33;;;;;;;2.17;1.73;;;3.30;99.90;;;;;;5068739;28;20040;-73
2023/01/16 09:20:01;;;;;;;3.30;1.77;;;3.40;99.90;;;;;;5079975;28;20091;-73
2023/01/16 09:22:30;;;;;;;1.40;1.30;;;3.30;99.90;;;;;;5066414;28;20739;-72
2023/01/16 09:24:57;;;;;;;3.15;1.75;;;3.30;99.90;;;;;;5059002;28;20044;-74
2023/01/16 09:27:25;;;;;;;1.70;1.60;;;3.30;99.90;;;;;;5070345;28;20059;-73
2023/01/16 09:29:53;;;;;;;1.85;1.75;;;3.40;99.90;;;;;;5070988;28;20044;-74
2023/01/16 09:32:22;;;;;;;1.90;1.80;;;3.40;99.90;;;;;;5068186;28;20481;-73
2023/01/16 09:34:50;;;;;;;1.98;1.60;;;3.40;99.90;;;;;;5068072;28;20101;-73
2023/01/16 09:37:18;;;;;;;2.13;1.83;;;3.40;99.90;;;;;;5069231;28;20057;-72
2023/01/16 09:39:45;;;;;;;1.85;1.75;;;3.50;99.90;;;;;;5056977;28;20114;-74
2023/01/16 09:45:23;;;;;;;2.45;2.08;;;3.50;99.90;;;;;;5069933;28;20055;-73
2023/01/16 09:47:55;;;;;;;2.20;2.00;;;3.50;99.90;;;;;;5070653;28;20151;-73
2023/01/16 09:50:33;;;;;;;2.00;1.52;;;3.50;99.90;;;;;;5068210;28;20143;-73
2023/01/16 09:58:41;;;;;;;2.47;1.80;;;3.50;99.90;;;;;;5050029;28;20060;-73
2023/01/16 10:01:15;;;;;;;2.53;1.80;;;3.50;99.90;;;;;;5064593;28;20091;-73
2023/01/16 10:03:44;;;;;;;1.48;1.38;;;3.50;99.90;;;;;;5068111;28;20051;-73
2023/01/16 10:06:22;;;;;;;1.67;1.50;;;3.50;99.90;;;;;;5068186;28;20098;-73
2023/01/16 10:09:05;;;;;;;2.45;1.77;;;3.50;99.90;;;;;;5051865;28;20144;-72
2023/01/16 10:11:41;;;;;;;3.97;1.80;;;3.50;99.90;;;;;;5049188;28;20155;-74
2023/01/16 10:14:43;;;;;;;2.20;1.25;;;3.60;99.90;;;;;;5048682;28;20567;-74
2023/01/16 10:17:25;;;;;;;5.28;1.75;;;3.60;99.90;;;;;;5054234;28;20455;-72
2023/01/16 10:20:11;;;;;;;1.30;1.20;;;3.60;99.90;;;;;;5058340;28;20531;-73
2023/01/16 10:22:56;;;;;;;2.45;1.55;;;3.60;99.90;;;;;;5052786;28;20052;-74
2023/01/16 10:25:30;;;;;;;3.42;1.65;;;3.50;99.90;;;;;;5054300;28;20509;-74
2023/01/16 10:28:15;;;;;;;2.20;2.00;;;3.50;99.90;;;;;;5060724;28;20056;-75
2023/01/16 10:30:49;;;;;;;2.00;1.63;;;3.50;99.90;;;;;;5071852;28;20052;-74
2023/01/16 10:33:30;;;;;;;2.45;2.00;;;3.50;99.90;;;;;;5073966;28;20064;-73
2023/01/16 10:36:01;;;;;;;2.55;1.60;;;3.50;99.90;;;;;;5073837;28;20131;-74
2023/01/16 10:38:42;;;;;;;2.05;1.58;;;3.50;99.90;;;;;;5057511;28;20082;-73
2023/01/16 10:49:37;;;;;;;1.58;1.35;;;3.50;99.90;;;;;;5070791;28;20558;-73
2023/01/16 10:52:06;;;;;;;1.58;1.48;;;3.60;99.90;;;;;;5039169;28;20103;-73
2023/01/16 10:54:34;;;;;;;1.75;1.42;;;3.60;99.90;;;;;;5053181;28;20060;-73
2023/01/16 10:57:03;;;;;;;1.70;1.30;;;3.60;99.90;;;;;;5056996;28;20077;-74
2023/01/16 10:59:34;;;;;;;2.25;1.60;;;3.60;99.90;;;;;;5052541;28;20061;-72
2023/01/16 11:02:18;;;;;;;1.58;1.25;;;3.70;99.90;;;;;;5067826;28;20107;-73
2023/01/16 11:04:45;;;;;;;2.08;1.27;;;3.70;99.90;;;;;;5069605;28;20421;-75
2023/01/16 11:07:20;;;;;;;1.50;1.40;;;3.70;99.90;;;;;;5072285;28;20045;-70
2023/01/16 11:09:48;;;;;;;1.30;1.20;;;3.70;99.90;;;;;;5072661;28;20166;-68
2023/01/16 11:20:57;;;;;;;3.97;1.70;;;3.70;99.90;;;;;;5056360;28;20090;-68
2023/01/16 11:23:43;;;;;;;2.72;1.75;;;3.60;99.90;;;;;;5061568;28;20144;-69
2023/01/16 11:26:13;;;;;;;2.75;1.42;;;3.60;99.90;;;;;;5066072;28;20102;-70
2023/01/16 11:28:48;;;;;;;1.50;1.33;;;3.60;99.90;;;;;;5050526;28;20073;-68
2023/01/16 11:35:15;;;;;;;3.20;1.73;;;3.70;99.90;;;;;;5062326;28;20044;-74
2023/01/16 11:37:45;;;;;;;2.78;1.77;;;3.70;99.90;;;;;;5064281;28;20513;-73
2023/01/16 11:40:21;;;;;;;5.90;1.55;;;3.70;99.90;;;;;;5063508;28;20056;-69
2023/01/16 11:46:05;;;;;;;2.33;1.55;;;3.60;99.90;;;;;;5063283;28;20045;-68
2023/01/16 11:48:39;;;;;;;1.52;1.42;;;3.60;99.90;;;;;;5064626;28;20129;-69
2023/01/16 11:51:13;;;;;;;1.75;1.58;;;3.60;99.90;;;;;;5070234;28;20056;-68
2023/01/16 11:53:41;;;;;;;1.40;1.30;;;3.60;99.90;;;;;;5070003;28;20431;-69
2023/01/16 11:56:51;;;;;;;2.20;1.90;;;3.70;99.90;;;;;;5061529;28;20148;-70
2023/01/16 11:59:51;;;;;;;1.70;1.60;;;3.60;99.90;;;;;;5052419;28;20151;-70
2023/01/16 12:03:48;;;;;;;2.13;1.55;;;3.60;99.90;;;;;;5066872;28;20374;-73
2023/01/16 12:06:39;;;;;;;3.38;2.17;;;3.60;99.90;;;;;;5059946;28;20611;-69
2023/01/16 12:09:29;;;;;;;1.70;1.60;;;3.60;99.90;;;;;;5068849;28;20056;-70
2023/01/16 12:15:08;;;;;;;5.15;2.28;;;3.60;99.90;;;;;;5068855;28;20064;-67
2023/01/16 12:17:57;;;;;;;2.42;1.50;;;3.60;99.90;;;;;;5070775;28;20052;-68
2023/01/16 12:20:36;;;;;;;2.47;1.90;;;3.60;99.90;;;;;;5058081;28;20053;-68
2023/01/16 12:23:43;;;;;;;2.58;2.20;;;3.70;99.90;;;;;;5050797;28;20049;-68
2023/01/16 12:26:21;;;;;;;1.80;1.70;;;3.60;99.90;;;;;;5061349;28;20080;-67
2023/01/16 12:29:09;;;;;;;2.65;1.80;;;3.60;99.90;;;;;;5066673;28;20045;-67
2023/01/16 12:32:09;;;;;;;2.40;1.90;;;3.60;99.90;;;;;;5055798;28;20131;-68
2023/01/16 12:35:29;;;;;;;3.92;2.05;;;3.60;99.90;;;;;;5051267;28;20080;-67
2023/01/16 12:38:14;;;;;;;2.28;2.00;;;3.60;99.90;;;;;;5040352;28;20111;-69
2023/01/16 12:44:31;;;;;;;3.65;2.20;;;3.50;99.90;;;;;;5049848;28;20452;-70
2023/01/16 12:47:21;;;;;;;3.58;2.13;;;3.50;99.90;;;;;;5052864;28;20083;-69
2023/01/16 12:50:05;;;;;;;2.83;2.60;;;3.50;99.90;;;;;;5060131;28;20043;-71
2023/01/16 12:52:58;;;;;;;2.75;2.15;;;3.50;99.90;;;;;;5069902;28;20064;-71
2023/01/16 12:55:43;;;;;;;;;;;3.60;99.90;;;;;;5071173;28;20106;-70
2023/01/16 12:58:16;;;;;;;6.03;2.03;;;3.60;99.90;;;;;;5049654;28;20309;-76
2023/01/16 13:00:57;;;;;;;2.72;1.98;;;3.60;99.90;;;;;;5059535;28;20574;-74
2023/01/16 13:03:34;;;;;;;3.42;2.22;;;3.70;99.90;;;;;;5066308;28;20079;-75
2023/01/16 13:06:03;;;;;;;2.30;2.15;;;3.70;99.90;;;;;;5059986;28;20055;-75
2023/01/16 13:08:38;;;;;;;3.15;2.65;;;3.70;99.90;;;;;;5069085;28;20052;-74
2023/01/16 13:14:05;;;;;;;2.92;2.15;;;3.70;99.90;;;;;;5070492;28;20485;-68
2023/01/16 13:16:38;;;;;;;3.97;2.58;;;3.70;99.90;;;;;;5067485;28;20106;-70
2023/01/16 13:19:14;;;;;;;2.40;2.20;;;3.60;99.90;;;;;;5069320;28;20517;-74
2023/01/16 13:21:56;;;;;;;4.10;2.20;;;3.60;99.90;;;;;;5063108;28;20497;-68
2023/01/16 13:24:31;;;;;;;2.65;2.42;;;3.60;99.90;;;;;;5062747;28;20459;-69
2023/01/16 13:27:03;;;;;;;2.83;2.20;;;3.60;99.90;;;;;;5050501;28;20268;-69
2023/01/16 13:30:15;;;;;;;2.30;2.05;;;3.60;99.90;;;;;;5070736;28;20299;-68
2023/01/16 13:33:44;;;;;;;2.25;2.00;;;3.60;99.90;;;;;;5046889;28;20052;-70
2023/01/16 13:36:56;;;;;;;4.35;2.35;;;3.50;99.90;;;;;;5050767;28;20056;-67
2023/01/16 13:40:36;;;;;;;2.95;2.20;;;3.50;99.90;;;;;;5054027;28;20057;-70
2023/01/16 13:46:07;;;;;;;3.70;2.83;;;3.50;99.90;;;;;;5058801;28;20369;-68
2023/01/16 13:49:43;;;;;;;3.88;1.88;;;3.50;99.90;;;;;;5069749;28;20044;-69
2023/01/16 13:52:43;;;;;;;3.50;2.30;;;3.50;99.90;;;;;;5008438;28;20122;-74
2023/01/16 13:55:46;;;;;;;2.25;1.90;;;3.50;99.90;;;;;;5060063;28;20155;-69
2023/01/16 13:58:39;;;;;;;3.75;2.40;;;3.60;99.90;;;;;;5064993;28;20109;-71
2023/01/16 14:01:45;;;;;;;3.63;2.35;;;3.50;99.90;;;;;;5054270;28;20101;-68
2023/01/16 14:04:33;;;;;;;2.45;1.92;;;3.50;99.90;;;;;;5020245;28;20045;-74
2023/01/16 14:10:24;;;;;;;4.85;2.20;;;3.50;99.90;;;;;;5060610;28;20052;-68
2023/01/16 14:13:14;;;;;;;1.73;1.63;;;3.60;99.90;;;;;;5017346;28;20499;-71
2023/01/16 14:19:23;;;;;;;2.30;1.77;;;3.60;99.90;;;;;;5050882;28;20148;-69
2023/01/16 14:24:49;;;;;;;3.42;1.90;;;3.60;99.90;;;;;;5052961;28;20049;-69
2023/01/16 14:27:19;;;;;;;3.15;2.75;;;3.60;99.90;;;;;;5056701;28;20048;-69
2023/01/16 14:29:52;;;;;;;3.53;2.05;;;3.50;99.90;;;;;;5058252;28;20045;-70
2023/01/16 14:32:25;;;;;;;5.72;2.85;;;3.50;99.90;;;;;;5056259;28;20056;-69
2023/01/16 14:34:55;;;;;;;;;;;3.40;99.90;;;;;;5074684;28;20728;-69
2023/01/16 14:37:27;;;;;;;5.57;2.55;;;3.40;99.90;;;;;;5066059;28;19928;-70
2023/01/16 14:39:57;;;;;;;6.28;3.33;;;3.30;99.90;;;;;;5063344;28;20075;-70
2023/01/16 14:57:36;;;;;;;3.97;2.90;;;3.30;99.90;;;;;;5075326;28;20048;-67
2023/01/16 15:00:09;;;;;;;4.18;3.25;;;3.30;99.90;;;;;;5064434;28;20086;-68
2023/01/16 15:02:42;;;;;;;3.15;2.75;;;3.40;99.90;;;;;;5066637;28;20116;-68
2023/01/16 15:05:17;;;;;;;4.25;3.45;;;3.40;99.90;;;;;;5066176;28;20048;-68
2023/01/16 15:07:48;;;;;;;5.30;3.35;;;3.40;99.90;;;;;;5067188;28;20124;-69
2023/01/16 15:10:21;;;;;;;4.03;2.97;;;3.40;99.90;;;;;;5070268;28;20048;-74
2023/01/16 15:12:49;;;;;;;;;;;3.40;99.90;;;;;;5070222;28;20060;-69
2023/01/16 15:15:25;;;;;;;3.83;2.70;;;3.40;99.90;;;;;;5069051;28;19925;-67
2023/01/16 15:23:30;;;;;;;4.20;3.05;;;3.50;99.90;;;;;;5071275;28;20087;-72
2023/01/16 15:26:41;;;;;;;7.20;2.88;;;3.50;99.90;;;;;;5072950;28;20527;-75
2023/01/16 15:29:38;;;;;;;4.10;2.72;;;3.50;99.90;;;;;;5071902;28;20147;-74
2023/01/16 15:32:17;;;;;;;3.40;2.85;;;3.50;99.90;;;;;;5055105;28;20056;-73
2023/01/16 15:34:45;;;;;;;6.03;3.38;;;3.60;99.90;;;;;;5059496;28;20110;-68